sensor_id;sensor_type;location;lat;lon;timestamp;P1;durP1;ratioP1;P2;durP2;ratioP2
33864;SDS011;20159;51.072;13.526;2023-03-13T00:01:46;10.30;;;5.18;;
33864;SDS011;20159;51.072;13.526;2023-03-13T00:04:13;14.10;;;5.68;;
33864;SDS011;20159;51.072;13.526;2023-03-13T00:06:38;14.15;;;5.07;;
33864;SDS011;20159;51.072;13.526;2023-03-13T00:09:08;10.80;;;5.03;;
33864;SDS011;20159;51.072;13.526;2023-03-13T00:11:35;17.58;;;5.90;;
33864;SDS011;20159;51.072;13.526;2023-03-13T00:14:03;14.73;;;5.68;;
33864;SDS011;20159;51.072;13.526;2023-03-13T00:16:30;12.27;;;5.32;;
33864;SDS011;20159;51.072;13.526;2023-03-13T00:18:56;12.88;;;5.10;;
33864;SDS011;20159;51.072;13.526;2023-03-13T00:21:23;10.50;;;5.13;;
33864;SDS011;20159;51.072;13.526;2023-03-13T00:23:50;12.18;;;5.00;;
33864;SDS011;20159;51.072;13.526;2023-03-13T00:26:16;14.25;;;5.07;;
33864;SDS011;20159;51.072;13.526;2023-03-13T00:28:43;14.45;;;5.05;;
33864;SDS011;20159;51.072;13.526;2023-03-13T00:31:10;11.00;;;5.07;;
33864;SDS011;20159;51.072;13.526;2023-03-13T00:33:47;13.48;;;5.18;;
33864;SDS011;20159;51.072;13.526;2023-03-13T00:36:15;11.48;;;5.07;;
33864;SDS011;20159;51.072;13.526;2023-03-13T00:38:42;17.50;;;4.90;;
33864;SDS011;20159;51.072;13.526;2023-03-13T00:41:09;12.75;;;4.75;;
33864;SDS011;20159;51.072;13.526;2023-03-13T00:43:36;13.23;;;5.10;;
33864;SDS011;20159;51.072;13.526;2023-03-13T00:46:03;9.90;;;4.70;;
33864;SDS011;20159;51.072;13.526;2023-03-13T00:48:29;12.05;;;4.50;;
33864;SDS011;20159;51.072;13.526;2023-03-13T00:50:55;16.10;;;4.85;;
33864;SDS011;20159;51.072;13.526;2023-03-13T00:53:20;11.93;;;4.25;;
33864;SDS011;20159;51.072;13.526;2023-03-13T00:55:53;11.63;;;4.63;;
33864;SDS011;20159;51.072;13.526;2023-03-13T00:58:21;11.35;;;4.13;;
33864;SDS011;20159;51.072;13.526;2023-03-13T01:00:48;13.48;;;4.75;;
33864;SDS011;20159;51.072;13.526;2023-03-13T01:03:13;16.45;;;5.18;;
33864;SDS011;20159;51.072;13.526;2023-03-13T01:05:39;12.82;;;4.93;;
33864;SDS011;20159;51.072;13.526;2023-03-13T01:08:08;16.60;;;5.30;;
33864;SDS011;20159;51.072;13.526;2023-03-13T01:10:34;11.13;;;4.57;;
33864;SDS011;20159;51.072;13.526;2023-03-13T01:12:59;11.02;;;4.55;;
33864;SDS011;20159;51.072;13.526;2023-03-13T01:15:25;11.25;;;4.38;;
33864;SDS011;20159;51.072;13.526;2023-03-13T01:17:51;10.38;;;4.38;;
33864;SDS011;20159;51.072;13.526;2023-03-13T01:20:17;12.32;;;4.88;;
33864;SDS011;20159;51.072;13.526;2023-03-13T01:22:42;12.27;;;4.90;;
33864;SDS011;20159;51.072;13.526;2023-03-13T01:25:08;11.82;;;4.57;;
33864;SDS011;20159;51.072;13.526;2023-03-13T01:27:33;13.13;;;4.82;;
33864;SDS011;20159;51.072;13.526;2023-03-13T01:29:59;13.80;;;4.25;;
33864;SDS011;20159;51.072;13.526;2023-03-13T01:32:24;14.95;;;4.50;;
33864;SDS011;20159;51.072;13.526;2023-03-13T01:34:50;8.65;;;4.03;;
33864;SDS011;20159;51.072;13.526;2023-03-13T01:37:15;12.90;;;4.78;;
33864;SDS011;20159;51.072;13.526;2023-03-13T01:39:41;13.10;;;4.22;;
33864;SDS011;20159;51.072;13.526;2023-03-13T01:42:07;11.65;;;4.43;;
33864;SDS011;20159;51.072;13.526;2023-03-13T01:44:48;12.93;;;4.80;;
33864;SDS011;20159;51.072;13.526;2023-03-13T01:47:21;15.70;;;5.15;;
33864;SDS011;20159;51.072;13.526;2023-03-13T01:49:47;11.55;;;4.57;;
33864;SDS011;20159;51.072;13.526;2023-03-13T01:52:17;13.98;;;4.68;;
33864;SDS011;20159;51.072;13.526;2023-03-13T01:54:52;11.20;;;4.20;;
33864;SDS011;20159;51.072;13.526;2023-03-13T01:57:33;11.00;;;4.57;;
33864;SDS011;20159;51.072;13.526;2023-03-13T02:00:07;12.73;;;4.57;;
33864;SDS011;20159;51.072;13.526;2023-03-13T02:02:40;12.73;;;4.38;;
33864;SDS011;20159;51.072;13.526;2023-03-13T02:05:09;13.02;;;4.50;;
33864;SDS011;20159;51.072;13.526;2023-03-13T02:07:39;13.25;;;4.47;;
33864;SDS011;20159;51.072;13.526;2023-03-13T02:10:09;16.65;;;4.55;;
33864;SDS011;20159;51.072;13.526;2023-03-13T02:12:37;11.60;;;4.30;;
33864;SDS011;20159;51.072;13.526;2023-03-13T02:15:06;14.65;;;4.88;;
33864;SDS011;20159;51.072;13.526;2023-03-13T02:20:13;18.23;;;4.93;;
33864;SDS011;20159;51.072;13.526;2023-03-13T02:22:44;13.63;;;4.82;;
33864;SDS011;20159;51.072;13.526;2023-03-13T02:27:47;11.27;;;4.75;;
33864;SDS011;20159;51.072;13.526;2023-03-13T02:30:32;12.23;;;4.30;;
33864;SDS011;20159;51.072;13.526;2023-03-13T02:32:59;12.88;;;4.05;;
33864;SDS011;20159;51.072;13.526;2023-03-13T02:35:26;14.45;;;4.60;;
33864;SDS011;20159;51.072;13.526;2023-03-13T02:37:53;12.13;;;4.55;;
33864;SDS011;20159;51.072;13.526;2023-03-13T02:40:23;17.98;;;5.00;;
33864;SDS011;20159;51.072;13.526;2023-03-13T02:42:54;14.55;;;4.22;;
33864;SDS011;20159;51.072;13.526;2023-03-13T02:45:22;16.92;;;4.43;;
33864;SDS011;20159;51.072;13.526;2023-03-13T02:47:47;10.90;;;4.32;;
33864;SDS011;20159;51.072;13.526;2023-03-13T02:50:13;12.52;;;3.78;;
33864;SDS011;20159;51.072;13.526;2023-03-13T02:52:44;16.10;;;4.80;;
33864;SDS011;20159;51.072;13.526;2023-03-13T02:55:17;12.18;;;4.10;;
33864;SDS011;20159;51.072;13.526;2023-03-13T02:57:54;13.10;;;4.05;;
33864;SDS011;20159;51.072;13.526;2023-03-13T03:00:20;13.23;;;4.82;;
33864;SDS011;20159;51.072;13.526;2023-03-13T03:02:50;14.27;;;4.63;;
33864;SDS011;20159;51.072;13.526;2023-03-13T03:05:16;13.27;;;4.80;;
33864;SDS011;20159;51.072;13.526;2023-03-13T03:07:41;12.57;;;4.25;;
33864;SDS011;20159;51.072;13.526;2023-03-13T03:10:07;13.45;;;4.43;;
33864;SDS011;20159;51.072;13.526;2023-03-13T03:12:33;15.80;;;4.45;;
33864;SDS011;20159;51.072;13.526;2023-03-13T03:14:59;17.35;;;4.97;;
33864;SDS011;20159;51.072;13.526;2023-03-13T03:17:24;13.45;;;4.28;;
33864;SDS011;20159;51.072;13.526;2023-03-13T03:19:50;15.55;;;4.95;;
33864;SDS011;20159;51.072;13.526;2023-03-13T03:22:15;12.23;;;4.15;;
33864;SDS011;20159;51.072;13.526;2023-03-13T03:24:40;10.85;;;4.13;;
33864;SDS011;20159;51.072;13.526;2023-03-13T03:27:06;14.85;;;4.57;;
33864;SDS011;20159;51.072;13.526;2023-03-13T03:29:32;15.80;;;4.18;;
33864;SDS011;20159;51.072;13.526;2023-03-13T03:31:57;15.05;;;4.78;;
33864;SDS011;20159;51.072;13.526;2023-03-13T03:34:22;13.25;;;4.00;;
33864;SDS011;20159;51.072;13.526;2023-03-13T03:36:48;9.88;;;3.90;;
33864;SDS011;20159;51.072;13.526;2023-03-13T03:39:13;11.20;;;4.20;;
33864;SDS011;20159;51.072;13.526;2023-03-13T03:41:39;13.70;;;3.90;;
33864;SDS011;20159;51.072;13.526;2023-03-13T03:44:04;13.65;;;4.28;;
33864;SDS011;20159;51.072;13.526;2023-03-13T03:46:30;10.13;;;3.58;;
33864;SDS011;20159;51.072;13.526;2023-03-13T03:48:55;11.07;;;4.30;;
33864;SDS011;20159;51.072;13.526;2023-03-13T03:51:21;13.88;;;4.47;;
33864;SDS011;20159;51.072;13.526;2023-03-13T03:53:47;11.57;;;3.63;;
33864;SDS011;20159;51.072;13.526;2023-03-13T03:56:12;11.55;;;4.20;;
33864;SDS011;20159;51.072;13.526;2023-03-13T03:58:38;11.55;;;4.25;;
33864;SDS011;20159;51.072;13.526;2023-03-13T04:01:03;14.93;;;4.05;;
33864;SDS011;20159;51.072;13.526;2023-03-13T04:03:29;13.02;;;3.88;;
33864;SDS011;20159;51.072;13.526;2023-03-13T04:05:55;12.93;;;4.28;;
33864;SDS011;20159;51.072;13.526;2023-03-13T04:08:21;11.05;;;3.75;;
33864;SDS011;20159;51.072;13.526;2023-03-13T04:10:47;12.07;;;4.40;;
33864;SDS011;20159;51.072;13.526;2023-03-13T04:13:12;11.50;;;4.13;;
33864;SDS011;20159;51.072;13.526;2023-03-13T04:15:38;9.60;;;3.75;;
33864;SDS011;20159;51.072;13.526;2023-03-13T04:18:04;12.82;;;3.90;;
33864;SDS011;20159;51.072;13.526;2023-03-13T04:20:30;15.18;;;4.13;;
33864;SDS011;20159;51.072;13.526;2023-03-13T04:22:56;15.35;;;4.15;;
33864;SDS011;20159;51.072;13.526;2023-03-13T04:25:21;15.20;;;4.63;;
33864;SDS011;20159;51.072;13.526;2023-03-13T04:27:47;9.13;;;3.80;;
33864;SDS011;20159;51.072;13.526;2023-03-13T04:30:12;14.32;;;4.18;;
33864;SDS011;20159;51.072;13.526;2023-03-13T04:32:38;10.82;;;4.10;;
33864;SDS011;20159;51.072;13.526;2023-03-13T04:35:04;10.25;;;3.75;;
33864;SDS011;20159;51.072;13.526;2023-03-13T04:37:30;11.45;;;4.30;;
33864;SDS011;20159;51.072;13.526;2023-03-13T04:39:55;13.90;;;4.20;;
33864;SDS011;20159;51.072;13.526;2023-03-13T04:42:21;15.15;;;4.28;;
33864;SDS011;20159;51.072;13.526;2023-03-13T04:44:47;12.50;;;3.92;;
33864;SDS011;20159;51.072;13.526;2023-03-13T04:47:13;10.57;;;3.92;;
33864;SDS011;20159;51.072;13.526;2023-03-13T04:49:38;11.75;;;4.18;;
33864;SDS011;20159;51.072;13.526;2023-03-13T04:52:04;16.33;;;4.30;;
33864;SDS011;20159;51.072;13.526;2023-03-13T04:54:29;12.48;;;4.20;;
33864;SDS011;20159;51.072;13.526;2023-03-13T04:56:55;11.50;;;4.13;;
33864;SDS011;20159;51.072;13.526;2023-03-13T04:59:20;11.23;;;4.38;;
33864;SDS011;20159;51.072;13.526;2023-03-13T05:01:46;14.63;;;3.97;;
33864;SDS011;20159;51.072;13.526;2023-03-13T05:04:11;12.50;;;4.30;;
33864;SDS011;20159;51.072;13.526;2023-03-13T05:06:37;10.13;;;3.47;;
33864;SDS011;20159;51.072;13.526;2023-03-13T05:09:03;13.77;;;4.13;;
33864;SDS011;20159;51.072;13.526;2023-03-13T05:11:29;11.23;;;3.78;;
33864;SDS011;20159;51.072;13.526;2023-03-13T05:13:54;14.52;;;3.72;;
33864;SDS011;20159;51.072;13.526;2023-03-13T05:16:20;12.60;;;4.13;;
33864;SDS011;20159;51.072;13.526;2023-03-13T05:18:45;11.50;;;4.05;;
33864;SDS011;20159;51.072;13.526;2023-03-13T05:21:11;13.13;;;3.85;;
33864;SDS011;20159;51.072;13.526;2023-03-13T05:23:36;10.15;;;3.80;;
33864;SDS011;20159;51.072;13.526;2023-03-13T05:26:02;12.07;;;3.95;;
33864;SDS011;20159;51.072;13.526;2023-03-13T05:28:27;12.90;;;4.10;;
33864;SDS011;20159;51.072;13.526;2023-03-13T05:30:53;11.57;;;3.88;;
33864;SDS011;20159;51.072;13.526;2023-03-13T05:33:18;10.55;;;3.47;;
33864;SDS011;20159;51.072;13.526;2023-03-13T05:35:44;13.20;;;4.15;;
33864;SDS011;20159;51.072;13.526;2023-03-13T05:38:10;11.82;;;3.80;;
33864;SDS011;20159;51.072;13.526;2023-03-13T05:40:36;13.30;;;4.18;;
33864;SDS011;20159;51.072;13.526;2023-03-13T05:43:02;9.43;;;3.60;;
33864;SDS011;20159;51.072;13.526;2023-03-13T05:45:27;11.52;;;3.70;;
33864;SDS011;20159;51.072;13.526;2023-03-13T05:47:53;14.80;;;3.75;;
33864;SDS011;20159;51.072;13.526;2023-03-13T05:50:18;10.25;;;3.33;;
33864;SDS011;20159;51.072;13.526;2023-03-13T05:52:44;11.30;;;3.63;;
33864;SDS011;20159;51.072;13.526;2023-03-13T05:55:10;11.60;;;3.50;;
33864;SDS011;20159;51.072;13.526;2023-03-13T05:57:35;8.05;;;3.20;;
33864;SDS011;20159;51.072;13.526;2023-03-13T06:00:01;10.80;;;4.07;;
33864;SDS011;20159;51.072;13.526;2023-03-13T06:02:27;10.27;;;3.90;;
33864;SDS011;20159;51.072;13.526;2023-03-13T06:04:53;9.82;;;3.38;;
33864;SDS011;20159;51.072;13.526;2023-03-13T06:07:18;8.88;;;3.03;;
33864;SDS011;20159;51.072;13.526;2023-03-13T06:09:44;9.95;;;3.38;;
33864;SDS011;20159;51.072;13.526;2023-03-13T06:12:10;12.48;;;3.42;;
33864;SDS011;20159;51.072;13.526;2023-03-13T06:14:36;8.40;;;3.50;;
33864;SDS011;20159;51.072;13.526;2023-03-13T06:17:04;9.90;;;3.75;;
33864;SDS011;20159;51.072;13.526;2023-03-13T06:19:30;10.55;;;3.75;;
33864;SDS011;20159;51.072;13.526;2023-03-13T06:21:55;9.02;;;3.17;;
33864;SDS011;20159;51.072;13.526;2023-03-13T06:24:21;8.30;;;2.88;;
33864;SDS011;20159;51.072;13.526;2023-03-13T06:26:47;10.90;;;3.50;;
33864;SDS011;20159;51.072;13.526;2023-03-13T06:29:13;10.02;;;3.45;;
33864;SDS011;20159;51.072;13.526;2023-03-13T06:31:39;9.70;;;3.20;;
33864;SDS011;20159;51.072;13.526;2023-03-13T06:34:04;11.63;;;3.35;;
33864;SDS011;20159;51.072;13.526;2023-03-13T06:36:29;10.05;;;3.35;;
33864;SDS011;20159;51.072;13.526;2023-03-13T06:38:55;6.65;;;2.80;;
33864;SDS011;20159;51.072;13.526;2023-03-13T06:41:20;14.82;;;3.47;;
33864;SDS011;20159;51.072;13.526;2023-03-13T06:43:46;8.18;;;3.45;;
33864;SDS011;20159;51.072;13.526;2023-03-13T06:46:16;8.90;;;3.05;;
33864;SDS011;20159;51.072;13.526;2023-03-13T06:48:42;7.15;;;2.72;;
33864;SDS011;20159;51.072;13.526;2023-03-13T06:51:10;7.88;;;3.15;;
33864;SDS011;20159;51.072;13.526;2023-03-13T06:53:39;13.70;;;3.47;;
33864;SDS011;20159;51.072;13.526;2023-03-13T06:56:05;9.13;;;3.13;;
33864;SDS011;20159;51.072;13.526;2023-03-13T06:58:31;10.32;;;3.15;;
33864;SDS011;20159;51.072;13.526;2023-03-13T07:00:57;9.02;;;2.92;;
33864;SDS011;20159;51.072;13.526;2023-03-13T07:03:33;9.13;;;3.60;;
33864;SDS011;20159;51.072;13.526;2023-03-13T07:05:59;8.32;;;2.70;;
33864;SDS011;20159;51.072;13.526;2023-03-13T07:08:24;9.68;;;3.35;;
33864;SDS011;20159;51.072;13.526;2023-03-13T07:10:51;8.10;;;2.80;;
33864;SDS011;20159;51.072;13.526;2023-03-13T07:13:17;8.63;;;3.00;;
33864;SDS011;20159;51.072;13.526;2023-03-13T07:15:46;9.85;;;3.50;;
33864;SDS011;20159;51.072;13.526;2023-03-13T07:18:12;10.15;;;3.33;;
33864;SDS011;20159;51.072;13.526;2023-03-13T07:20:38;8.55;;;2.90;;
33864;SDS011;20159;51.072;13.526;2023-03-13T07:23:03;7.00;;;2.53;;
33864;SDS011;20159;51.072;13.526;2023-03-13T07:25:29;8.68;;;2.78;;
33864;SDS011;20159;51.072;13.526;2023-03-13T07:27:54;5.45;;;2.60;;
33864;SDS011;20159;51.072;13.526;2023-03-13T07:30:20;7.15;;;2.83;;
33864;SDS011;20159;51.072;13.526;2023-03-13T07:32:46;7.90;;;2.97;;
33864;SDS011;20159;51.072;13.526;2023-03-13T07:35:12;7.07;;;2.85;;
33864;SDS011;20159;51.072;13.526;2023-03-13T07:37:38;8.50;;;2.95;;
33864;SDS011;20159;51.072;13.526;2023-03-13T07:40:03;10.57;;;2.45;;
33864;SDS011;20159;51.072;13.526;2023-03-13T07:42:29;7.80;;;2.58;;
33864;SDS011;20159;51.072;13.526;2023-03-13T07:44:55;8.10;;;3.30;;
33864;SDS011;20159;51.072;13.526;2023-03-13T07:47:20;7.22;;;2.42;;
33864;SDS011;20159;51.072;13.526;2023-03-13T07:49:46;7.80;;;2.65;;
33864;SDS011;20159;51.072;13.526;2023-03-13T07:52:11;10.88;;;2.92;;
33864;SDS011;20159;51.072;13.526;2023-03-13T07:54:37;5.65;;;2.28;;
33864;SDS011;20159;51.072;13.526;2023-03-13T07:57:02;7.35;;;2.28;;
33864;SDS011;20159;51.072;13.526;2023-03-13T07:59:28;6.22;;;2.58;;
33864;SDS011;20159;51.072;13.526;2023-03-13T08:01:53;7.20;;;2.47;;
33864;SDS011;20159;51.072;13.526;2023-03-13T08:04:19;4.78;;;2.40;;
33864;SDS011;20159;51.072;13.526;2023-03-13T08:06:44;5.45;;;2.42;;
33864;SDS011;20159;51.072;13.526;2023-03-13T08:09:10;5.05;;;2.15;;
33864;SDS011;20159;51.072;13.526;2023-03-13T08:11:36;6.72;;;2.45;;
33864;SDS011;20159;51.072;13.526;2023-03-13T08:14:08;6.78;;;2.30;;
33864;SDS011;20159;51.072;13.526;2023-03-13T08:16:34;6.03;;;2.50;;
33864;SDS011;20159;51.072;13.526;2023-03-13T08:19:00;5.15;;;2.40;;
33864;SDS011;20159;51.072;13.526;2023-03-13T08:21:30;6.53;;;2.42;;
33864;SDS011;20159;51.072;13.526;2023-03-13T08:23:57;4.88;;;2.05;;
33864;SDS011;20159;51.072;13.526;2023-03-13T08:26:26;5.88;;;2.72;;
33864;SDS011;20159;51.072;13.526;2023-03-13T08:28:54;5.97;;;2.35;;
33864;SDS011;20159;51.072;13.526;2023-03-13T08:31:22;6.40;;;2.47;;
33864;SDS011;20159;51.072;13.526;2023-03-13T08:33:49;6.50;;;2.38;;
33864;SDS011;20159;51.072;13.526;2023-03-13T08:36:20;8.75;;;2.33;;
33864;SDS011;20159;51.072;13.526;2023-03-13T08:38:47;4.82;;;1.92;;
33864;SDS011;20159;51.072;13.526;2023-03-13T08:41:14;4.15;;;1.60;;
33864;SDS011;20159;51.072;13.526;2023-03-13T08:43:40;4.25;;;1.73;;
33864;SDS011;20159;51.072;13.526;2023-03-13T08:46:06;4.88;;;1.98;;
33864;SDS011;20159;51.072;13.526;2023-03-13T08:48:32;6.45;;;1.90;;
33864;SDS011;20159;51.072;13.526;2023-03-13T08:51:01;4.43;;;1.80;;
33864;SDS011;20159;51.072;13.526;2023-03-13T08:53:31;3.95;;;1.95;;
33864;SDS011;20159;51.072;13.526;2023-03-13T08:55:57;4.90;;;1.63;;
33864;SDS011;20159;51.072;13.526;2023-03-13T08:58:23;3.78;;;1.63;;
33864;SDS011;20159;51.072;13.526;2023-03-13T09:00:48;4.10;;;1.35;;
33864;SDS011;20159;51.072;13.526;2023-03-13T09:03:14;3.28;;;1.25;;
33864;SDS011;20159;51.072;13.526;2023-03-13T09:05:39;3.22;;;1.30;;
33864;SDS011;20159;51.072;13.526;2023-03-13T09:08:05;5.25;;;1.10;;
33864;SDS011;20159;51.072;13.526;2023-03-13T09:10:33;2.15;;;1.25;;
33864;SDS011;20159;51.072;13.526;2023-03-13T09:12:59;2.30;;;1.00;;
33864;SDS011;20159;51.072;13.526;2023-03-13T09:15:26;2.60;;;0.93;;
33864;SDS011;20159;51.072;13.526;2023-03-13T09:17:52;2.90;;;1.30;;
33864;SDS011;20159;51.072;13.526;2023-03-13T09:20:17;4.05;;;1.27;;
33864;SDS011;20159;51.072;13.526;2023-03-13T09:22:43;4.60;;;1.23;;
33864;SDS011;20159;51.072;13.526;2023-03-13T09:25:09;1.83;;;1.10;;
33864;SDS011;20159;51.072;13.526;2023-03-13T09:27:35;2.40;;;1.30;;
33864;SDS011;20159;51.072;13.526;2023-03-13T09:30:01;2.55;;;1.30;;
33864;SDS011;20159;51.072;13.526;2023-03-13T09:32:26;2.70;;;1.20;;
33864;SDS011;20159;51.072;13.526;2023-03-13T09:34:52;3.70;;;1.23;;
33864;SDS011;20159;51.072;13.526;2023-03-13T09:37:17;2.72;;;1.40;;
33864;SDS011;20159;51.072;13.526;2023-03-13T09:39:43;2.47;;;1.35;;
33864;SDS011;20159;51.072;13.526;2023-03-13T09:42:11;2.42;;;1.17;;
33864;SDS011;20159;51.072;13.526;2023-03-13T09:47:17;1.83;;;0.93;;
33864;SDS011;20159;51.072;13.526;2023-03-13T09:49:51;1.75;;;1.17;;
33864;SDS011;20159;51.072;13.526;2023-03-13T09:52:21;2.88;;;1.33;;
33864;SDS011;20159;51.072;13.526;2023-03-13T09:55:10;1.90;;;1.20;;
33864;SDS011;20159;51.072;13.526;2023-03-13T09:57:52;2.47;;;1.17;;
33864;SDS011;20159;51.072;13.526;2023-03-13T10:00:30;5.55;;;1.25;;
33864;SDS011;20159;51.072;13.526;2023-03-13T10:05:51;3.30;;;1.05;;
33864;SDS011;20159;51.072;13.526;2023-03-13T10:08:21;2.83;;;1.33;;
33864;SDS011;20159;51.072;13.526;2023-03-13T10:10:50;1.65;;;0.90;;
33864;SDS011;20159;51.072;13.526;2023-03-13T10:13:33;3.25;;;1.20;;
33864;SDS011;20159;51.072;13.526;2023-03-13T10:16:19;2.90;;;1.00;;
33864;SDS011;20159;51.072;13.526;2023-03-13T10:18:54;2.75;;;0.93;;
33864;SDS011;20159;51.072;13.526;2023-03-13T10:21:24;3.60;;;1.20;;
33864;SDS011;20159;51.072;13.526;2023-03-13T10:23:59;1.85;;;1.20;;
33864;SDS011;20159;51.072;13.526;2023-03-13T10:26:33;2.35;;;0.90;;
33864;SDS011;20159;51.072;13.526;2023-03-13T10:29:10;1.30;;;1.02;;
33864;SDS011;20159;51.072;13.526;2023-03-13T10:31:56;2.33;;;1.10;;
33864;SDS011;20159;51.072;13.526;2023-03-13T10:34:23;1.60;;;1.00;;
33864;SDS011;20159;51.072;13.526;2023-03-13T10:36:53;2.20;;;1.10;;
33864;SDS011;20159;51.072;13.526;2023-03-13T10:39:24;2.13;;;1.02;;
33864;SDS011;20159;51.072;13.526;2023-03-13T10:41:55;2.30;;;1.20;;
33864;SDS011;20159;51.072;13.526;2023-03-13T10:44:41;1.88;;;1.10;;
33864;SDS011;20159;51.072;13.526;2023-03-13T10:47:08;1.15;;;0.80;;
33864;SDS011;20159;51.072;13.526;2023-03-13T10:49:45;2.10;;;1.00;;
33864;SDS011;20159;51.072;13.526;2023-03-13T10:52:31;1.33;;;0.80;;
33864;SDS011;20159;51.072;13.526;2023-03-13T10:54:59;1.40;;;1.00;;
33864;SDS011;20159;51.072;13.526;2023-03-13T10:57:29;1.17;;;0.73;;
33864;SDS011;20159;51.072;13.526;2023-03-13T10:59:56;1.92;;;0.90;;
33864;SDS011;20159;51.072;13.526;2023-03-13T11:05:03;1.35;;;0.75;;
33864;SDS011;20159;51.072;13.526;2023-03-13T11:07:48;1.25;;;0.70;;
33864;SDS011;20159;51.072;13.526;2023-03-13T11:10:27;1.13;;;0.70;;
33864;SDS011;20159;51.072;13.526;2023-03-13T11:12:54;2.33;;;0.77;;
33864;SDS011;20159;51.072;13.526;2023-03-13T11:15:28;0.80;;;0.60;;
33864;SDS011;20159;51.072;13.526;2023-03-13T11:18:05;1.48;;;0.70;;
33864;SDS011;20159;51.072;13.526;2023-03-13T11:20:32;1.05;;;0.60;;
33864;SDS011;20159;51.072;13.526;2023-03-13T11:23:05;1.65;;;0.70;;
33864;SDS011;20159;51.072;13.526;2023-03-13T11:36:51;2.60;;;0.88;;
33864;SDS011;20159;51.072;13.526;2023-03-13T11:39:45;1.65;;;1.00;;
33864;SDS011;20159;51.072;13.526;2023-03-13T11:42:40;1.65;;;0.98;;
33864;SDS011;20159;51.072;13.526;2023-03-13T11:50:42;2.15;;;0.93;;
33864;SDS011;20159;51.072;13.526;2023-03-13T11:53:28;1.75;;;0.85;;
33864;SDS011;20159;51.072;13.526;2023-03-13T11:56:26;2.05;;;0.98;;
33864;SDS011;20159;51.072;13.526;2023-03-13T11:59:47;1.55;;;0.90;;
33864;SDS011;20159;51.072;13.526;2023-03-13T12:02:27;2.05;;;1.00;;
33864;SDS011;20159;51.072;13.526;2023-03-13T12:05:03;1.20;;;0.80;;
33864;SDS011;20159;51.072;13.526;2023-03-13T12:07:34;2.17;;;1.10;;
33864;SDS011;20159;51.072;13.526;2023-03-13T12:13:11;2.30;;;1.10;;
33864;SDS011;20159;51.072;13.526;2023-03-13T12:15:45;1.50;;;1.05;;
33864;SDS011;20159;51.072;13.526;2023-03-13T12:23:44;3.13;;;0.95;;
33864;SDS011;20159;51.072;13.526;2023-03-13T12:26:19;1.70;;;0.90;;
33864;SDS011;20159;51.072;13.526;2023-03-13T12:28:51;1.20;;;0.77;;
33864;SDS011;20159;51.072;13.526;2023-03-13T12:31:41;1.08;;;0.70;;
33864;SDS011;20159;51.072;13.526;2023-03-13T12:34:26;2.78;;;0.77;;
33864;SDS011;20159;51.072;13.526;2023-03-13T12:37:00;1.25;;;0.70;;
33864;SDS011;20159;51.072;13.526;2023-03-13T12:39:41;1.45;;;0.80;;
33864;SDS011;20159;51.072;13.526;2023-03-13T12:42:19;1.52;;;0.82;;
33864;SDS011;20159;51.072;13.526;2023-03-13T12:44:47;1.60;;;0.80;;
33864;SDS011;20159;51.072;13.526;2023-03-13T12:47:18;1.75;;;0.88;;
33864;SDS011;20159;51.072;13.526;2023-03-13T12:50:18;3.22;;;0.70;;
33864;SDS011;20159;51.072;13.526;2023-03-13T12:53:09;1.83;;;0.88;;
33864;SDS011;20159;51.072;13.526;2023-03-13T13:01:11;1.35;;;0.82;;
33864;SDS011;20159;51.072;13.526;2023-03-13T13:04:00;2.78;;;0.80;;
33864;SDS011;20159;51.072;13.526;2023-03-13T13:06:53;1.02;;;0.70;;
33864;SDS011;20159;51.072;13.526;2023-03-13T13:09:27;1.58;;;1.05;;
33864;SDS011;20159;51.072;13.526;2023-03-13T13:12:17;1.77;;;0.80;;
33864;SDS011;20159;51.072;13.526;2023-03-13T13:19:53;1.92;;;0.90;;
33864;SDS011;20159;51.072;13.526;2023-03-13T13:25:01;3.53;;;0.88;;
33864;SDS011;20159;51.072;13.526;2023-03-13T13:30:46;2.03;;;0.90;;
33864;SDS011;20159;51.072;13.526;2023-03-13T13:38:39;1.40;;;0.70;;
33864;SDS011;20159;51.072;13.526;2023-03-13T13:43:35;1.50;;;0.70;;
33864;SDS011;20159;51.072;13.526;2023-03-13T13:46:14;1.10;;;0.80;;
33864;SDS011;20159;51.072;13.526;2023-03-13T13:48:42;0.95;;;0.70;;
33864;SDS011;20159;51.072;13.526;2023-03-13T13:53:46;1.65;;;0.70;;
33864;SDS011;20159;51.072;13.526;2023-03-13T13:58:59;2.92;;;0.82;;
33864;SDS011;20159;51.072;13.526;2023-03-13T14:01:43;1.38;;;0.80;;
33864;SDS011;20159;51.072;13.526;2023-03-13T14:04:13;1.20;;;0.65;;
33864;SDS011;20159;51.072;13.526;2023-03-13T14:06:44;1.48;;;0.60;;
33864;SDS011;20159;51.072;13.526;2023-03-13T14:09:18;1.73;;;0.75;;
33864;SDS011;20159;51.072;13.526;2023-03-13T14:11:58;0.90;;;0.80;;
33864;SDS011;20159;51.072;13.526;2023-03-13T14:14:24;1.33;;;0.70;;
33864;SDS011;20159;51.072;13.526;2023-03-13T14:16:50;1.42;;;0.63;;
33864;SDS011;20159;51.072;13.526;2023-03-13T14:22:28;1.48;;;0.90;;
33864;SDS011;20159;51.072;13.526;2023-03-13T14:25:10;1.40;;;0.80;;
33864;SDS011;20159;51.072;13.526;2023-03-13T14:27:41;1.45;;;0.80;;
33864;SDS011;20159;51.072;13.526;2023-03-13T14:30:07;1.65;;;0.82;;
33864;SDS011;20159;51.072;13.526;2023-03-13T14:32:34;1.80;;;0.82;;
33864;SDS011;20159;51.072;13.526;2023-03-13T14:35:00;1.88;;;1.00;;
33864;SDS011;20159;51.072;13.526;2023-03-13T14:40:19;2.72;;;0.82;;
33864;SDS011;20159;51.072;13.526;2023-03-13T14:42:49;1.55;;;0.80;;
33864;SDS011;20159;51.072;13.526;2023-03-13T14:45:32;1.48;;;1.00;;
33864;SDS011;20159;51.072;13.526;2023-03-13T14:48:00;3.08;;;0.98;;
33864;SDS011;20159;51.072;13.526;2023-03-13T14:50:50;1.73;;;0.95;;
33864;SDS011;20159;51.072;13.526;2023-03-13T14:53:21;1.75;;;1.00;;
33864;SDS011;20159;51.072;13.526;2023-03-13T14:55:47;1.52;;;0.80;;
33864;SDS011;20159;51.072;13.526;2023-03-13T14:58:35;1.55;;;0.90;;
33864;SDS011;20159;51.072;13.526;2023-03-13T15:01:10;1.10;;;0.90;;
33864;SDS011;20159;51.072;13.526;2023-03-13T15:03:50;1.42;;;0.93;;
33864;SDS011;20159;51.072;13.526;2023-03-13T15:06:17;1.83;;;0.93;;
33864;SDS011;20159;51.072;13.526;2023-03-13T15:08:45;1.40;;;0.85;;
33864;SDS011;20159;51.072;13.526;2023-03-13T15:11:26;2.45;;;1.17;;
33864;SDS011;20159;51.072;13.526;2023-03-13T15:13:54;2.28;;;1.00;;
33864;SDS011;20159;51.072;13.526;2023-03-13T15:16:21;2.88;;;0.90;;
33864;SDS011;20159;51.072;13.526;2023-03-13T15:18:48;2.25;;;1.05;;
33864;SDS011;20159;51.072;13.526;2023-03-13T15:21:19;2.00;;;1.10;;
33864;SDS011;20159;51.072;13.526;2023-03-13T15:26:20;1.42;;;0.90;;
33864;SDS011;20159;51.072;13.526;2023-03-13T15:28:52;1.58;;;1.00;;
33864;SDS011;20159;51.072;13.526;2023-03-13T15:31:18;1.23;;;0.80;;
33864;SDS011;20159;51.072;13.526;2023-03-13T15:33:47;2.00;;;0.90;;
33864;SDS011;20159;51.072;13.526;2023-03-13T15:36:17;2.72;;;0.80;;
33864;SDS011;20159;51.072;13.526;2023-03-13T15:38:43;2.42;;;0.85;;
33864;SDS011;20159;51.072;13.526;2023-03-13T15:41:11;0.88;;;0.63;;
33864;SDS011;20159;51.072;13.526;2023-03-13T15:43:37;1.05;;;0.80;;
33864;SDS011;20159;51.072;13.526;2023-03-13T15:46:02;1.60;;;0.85;;
33864;SDS011;20159;51.072;13.526;2023-03-13T15:48:30;1.70;;;1.10;;
33864;SDS011;20159;51.072;13.526;2023-03-13T15:51:00;1.75;;;0.93;;
33864;SDS011;20159;51.072;13.526;2023-03-13T15:53:37;1.70;;;1.00;;
33864;SDS011;20159;51.072;13.526;2023-03-13T15:56:08;3.15;;;0.73;;
33864;SDS011;20159;51.072;13.526;2023-03-13T15:58:40;1.25;;;0.90;;